Time;durP1;ratioP1;P1;durP2;ratioP2;P2;SDS_P1;SDS_P2;PMS_P1;PMS_P2;Temp;Humidity;BMP_temperature;BMP_pressure;BME280_temperature;BME280_humidity;BME280_pressure;Samples;Min_cycle;Max_cycle;Signal;HPM_P1;HPM_P2
2023/05/28 00:04:10;;;;;;;11.25;4.25;;;;;;;15.72;50.04;100631.41;10297164;28;20042;-68
2023/05/28 00:09:12;;;;;;;7.22;3.67;;;;;;;15.69;50.20;100618.25;10295329;28;20389;-72
2023/05/28 00:14:14;;;;;;;8.40;3.42;;;;;;;15.61;50.31;100618.41;10298079;28;20517;-68
2023/05/28 00:19:15;;;;;;;5.85;3.22;;;;;;;15.61;50.45;100618.41;10292721;28;20058;-72
2023/05/28 00:24:17;;;;;;;7.90;3.17;;;;;;;15.60;50.47;100605.91;10299885;28;20401;-63
2023/05/28 00:29:18;;;;;;;10.93;3.17;;;;;;;15.47;50.61;100604.81;10294565;28;20875;-66
2023/05/28 00:34:20;;;;;;;8.73;2.63;;;;;;;15.41;50.84;100593.97;10291283;28;20054;-70
2023/05/28 00:39:21;;;;;;;8.20;3.33;;;;;;;15.31;50.99;100599.75;10297482;28;20399;-72
2023/05/28 00:44:23;;;;;;;7.65;3.50;;;;;;;15.21;51.23;100607.41;10301530;28;20085;-70
2023/05/28 00:49:25;;;;;;;7.65;3.10;;;;;;;15.05;51.61;100600.44;10300859;28;20043;-71
2023/05/28 00:54:27;;;;;;;10.35;5.20;;;;;;;14.99;51.81;100603.94;10301195;28;20038;-64
2023/05/28 00:59:29;;;;;;;7.35;3.55;;;;;;;14.85;51.98;100600.31;10299594;28;20062;-71
2023/05/28 01:04:33;;;;;;;11.45;3.65;;;;;;;14.67;52.54;100598.09;10301097;28;20050;-70
2023/05/28 01:09:34;;;;;;;10.05;4.78;;;;;;;14.63;52.74;100597.66;10299200;28;20047;-69
2023/05/28 01:14:39;;;;;;;11.63;4.38;;;;;;;14.55;52.84;100597.75;10288003;28;20525;-71
2023/05/28 01:19:42;;;;;;;7.47;3.28;;;;;;;14.34;53.14;100589.69;10299792;28;20054;-70
2023/05/28 01:24:46;;;;;;;6.22;2.88;;;;;;;14.29;53.47;100590.25;10301010;28;20046;-72
2023/05/28 01:29:47;;;;;;;7.30;2.80;;;;;;;14.26;53.37;100596.91;10298308;28;20046;-69
2023/05/28 01:34:49;;;;;;;5.65;2.80;;;;;;;14.33;53.48;100590.72;10299240;28;20137;-63
2023/05/28 01:39:52;;;;;;;8.23;2.75;;;;;;;14.35;53.24;100589.47;10303013;28;20046;-66
2023/05/28 01:44:54;;;;;;;9.40;2.97;;;;;;;14.36;53.45;100593.88;10303298;28;20057;-72
2023/05/28 01:49:56;;;;;;;9.20;3.33;;;;;;;14.20;53.64;100588.75;10294847;28;20054;-72
2023/05/28 01:54:57;;;;;;;7.95;3.05;;;;;;;14.09;54.04;100585.50;10308683;28;20691;-72
2023/05/28 01:59:59;;;;;;;8.68;3.17;;;;;;;14.03;54.49;100575.47;10283783;28;20042;-67
2023/05/28 02:05:00;;;;;;;5.65;2.35;;;;;;;14.04;54.39;100581.69;10299366;28;20042;-65
2023/05/28 02:10:02;;;;;;;11.18;4.32;;;;;;;14.05;54.00;100576.09;10301059;28;20042;-70
2023/05/28 02:15:04;;;;;;;7.82;2.28;;;;;;;13.98;54.34;100572.53;10299131;28;20053;-68
2023/05/28 02:20:06;;;;;;;5.75;1.98;;;;;;;13.87;54.28;100575.72;10304203;28;20073;-69
2023/05/28 02:25:08;;;;;;;8.77;2.53;;;;;;;13.74;55.07;100575.56;10299362;28;20058;-72
2023/05/28 02:30:13;;;;;;;5.78;2.65;;;;;;;13.56;55.26;100565.19;10298957;28;20047;-67
2023/05/28 02:35:15;;;;;;;7.07;2.50;;;;;;;13.56;55.43;100563.31;10293283;28;20046;-67
2023/05/28 02:40:16;;;;;;;5.50;2.33;;;;;;;13.44;55.75;100571.09;10301304;28;20043;-68
2023/05/28 02:45:18;;;;;;;7.10;2.90;;;;;;;13.46;55.49;100565.50;10296902;28;20560;-68
2023/05/28 02:50:19;;;;;;;4.90;2.53;;;;;;;13.44;55.73;100560.28;10286318;28;20046;-72
2023/05/28 02:55:21;;;;;;;8.50;2.65;;;;;;;13.39;55.68;100562.72;10277731;28;20054;-70
2023/05/28 03:00:22;;;;;;;8.75;2.53;;;;;;;13.37;55.99;100563.94;10298981;28;20038;-71
2023/05/28 03:05:24;;;;;;;5.18;2.63;;;;;;;13.38;56.14;100561.03;10303709;28;20046;-70
2023/05/28 03:10:25;;;;;;;6.03;2.95;;;;;;;13.40;55.74;100569.78;10298416;28;20041;-70
2023/05/28 03:15:27;;;;;;;8.10;2.55;;;;;;;13.40;56.08;100571.66;10299957;28;20042;-71
2023/05/28 03:20:28;;;;;;;6.05;2.58;;;;;;;13.41;55.98;100567.94;10298759;28;20050;-69
2023/05/28 03:25:30;;;;;;;7.60;2.90;;;;;;;13.39;56.04;100567.28;10301710;28;20051;-61
2023/05/28 03:30:32;;;;;;;8.13;2.22;;;;;;;13.38;56.02;100563.75;10299171;28;20067;-66
2023/05/28 03:35:33;;;;;;;11.02;3.28;;;;;;;13.36;56.23;100563.09;10303379;28;20052;-65
2023/05/28 03:40:34;;;;;;;6.25;2.83;;;;;;;13.39;56.22;100564.56;10310189;28;20482;-67
2023/05/28 03:45:36;;;;;;;5.80;2.70;;;;;;;13.26;56.46;100568.75;10308079;28;20355;-61
2023/05/28 03:50:37;;;;;;;5.32;2.25;;;;;;;13.17;56.74;100564.50;10310330;28;20130;-67
2023/05/28 03:55:39;;;;;;;9.75;3.00;;;;;;;13.16;56.65;100562.81;10301999;28;20043;-68
2023/05/28 04:00:40;;;;;;;8.05;3.22;;;;;;;13.07;56.93;100572.03;10303698;28;20042;-68
2023/05/28 04:05:42;;;;;;;7.03;2.40;;;;;;;13.05;56.76;100561.44;10316726;28;20052;-68
2023/05/28 04:10:43;;;;;;;7.93;3.13;;;;;;;13.16;56.74;100564.69;10301079;28;20046;-68
2023/05/28 04:15:45;;;;;;;11.20;4.15;;;;;;;13.23;56.80;100558.34;10301388;28;20065;-65
2023/05/28 04:20:46;;;;;;;10.32;3.60;;;;;;;13.28;56.98;100568.56;10297504;28;20046;-68
2023/05/28 04:25:48;;;;;;;8.00;2.67;;;;;;;13.37;56.59;100566.63;10304746;28;20042;-68
2023/05/28 04:30:50;;;;;;;8.00;2.70;;;;;;;13.47;56.78;100556.38;10303495;28;20548;-61
2023/05/28 04:35:51;;;;;;;8.52;2.20;;;;;;;13.53;56.78;100571.81;10304000;28;20046;-68
2023/05/28 04:40:54;;;;;;;6.18;2.85;;;;;;;13.60;56.99;100574.59;10300073;28;20616;-65
2023/05/28 04:45:58;;;;;;;9.60;3.13;;;;;;;13.72;56.76;100574.94;10302566;28;20046;-66
2023/05/28 04:51:00;;;;;;;7.25;2.83;;;;;;;13.78;56.85;100582.28;10299928;28;20058;-68
2023/05/28 04:56:02;;;;;;;8.30;2.50;;;;;;;13.87;56.60;100583.84;10299064;28;20080;-66
2023/05/28 05:01:04;;;;;;;9.55;3.13;;;;;;;14.04;56.81;100582.56;10291780;28;20054;-66
2023/05/28 05:06:07;;;;;;;5.63;2.50;;;;;;;14.20;56.32;100577.94;10296266;28;20113;-67
2023/05/28 05:11:08;;;;;;;5.95;2.30;;;;;;;14.21;56.92;100575.00;10290468;28;20179;-68
2023/05/28 05:16:10;;;;;;;9.02;3.38;;;;;;;14.38;56.82;100581.00;10288687;28;20053;-68
2023/05/28 05:21:12;;;;;;;15.80;3.45;;;;;;;14.58;56.55;100583.06;10292776;28;20073;-66
2023/05/28 05:26:16;;;;;;;4.68;2.58;;;;;;;14.66;56.48;100578.31;10299546;28;20039;-67
2023/05/28 05:31:18;;;;;;;8.52;3.25;;;;;;;14.79;56.53;100583.00;10303707;28;20039;-68
2023/05/28 05:36:20;;;;;;;9.13;2.45;;;;;;;14.95;56.42;100579.16;10304085;28;20068;-63
2023/05/28 05:41:22;;;;;;;6.63;2.38;;;;;;;15.02;56.27;100580.00;10303236;28;20050;-68
2023/05/28 05:46:23;;;;;;;4.60;2.85;;;;;;;15.18;56.51;100581.53;10306193;28;20046;-68
2023/05/28 05:51:25;;;;;;;12.27;3.00;;;;;;;15.30;56.37;100570.97;10307508;28;20053;-66
2023/05/28 05:56:27;;;;;;;8.18;2.80;;;;;;;15.49;56.32;100574.81;10303429;28;20050;-68
2023/05/28 06:01:29;;;;;;;6.68;2.47;;;;;;;15.75;56.15;100573.25;10299295;28;20043;-65
2023/05/28 06:06:31;;;;;;;8.65;2.65;;;;;;;16.02;55.81;100585.00;10299254;28;20046;-66
2023/05/28 06:11:33;;;;;;;9.02;2.50;;;;;;;16.17;55.43;100574.81;10298747;28;20057;-67
2023/05/28 06:16:34;;;;;;;7.38;2.25;;;;;;;16.39;55.17;100582.72;10299830;28;20046;-69
2023/05/28 06:21:36;;;;;;;5.97;2.50;;;;;;;16.52;54.73;100571.88;10308437;28;20046;-68
2023/05/28 06:26:38;;;;;;;11.75;2.15;;;;;;;16.73;54.09;100575.41;10298340;28;20321;-64
2023/05/28 06:31:40;;;;;;;4.93;1.90;;;;;;;16.98;53.43;100573.72;10303430;28;20050;-63
2023/05/28 06:36:41;;;;;;;6.88;1.50;;;;;;;17.24;52.47;100575.53;10300146;28;20573;-67
2023/05/28 06:41:43;;;;;;;4.60;1.80;;;;;;;17.42;51.90;100582.97;10300250;28;20581;-68
2023/05/28 06:46:44;;;;;;;4.72;1.75;;;;;;;17.67;51.33;100579.50;10300468;28;20046;-65
2023/05/28 06:51:46;;;;;;;4.82;1.95;;;;;;;17.87;50.96;100573.16;10298404;28;20139;-66
2023/05/28 06:56:47;;;;;;;7.50;2.15;;;;;;;17.99;51.02;100580.41;10299157;28;20061;-66
2023/05/28 07:01:49;;;;;;;7.75;2.53;;;;;;;18.19;50.48;100590.34;10299010;28;20444;-68
2023/05/28 07:06:50;;;;;;;5.63;1.67;;;;;;;18.40;50.31;100580.94;10299344;28;20081;-63
2023/05/28 07:11:52;;;;;;;4.07;1.75;;;;;;;18.63;49.98;100583.06;10299412;28;20121;-68
2023/05/28 07:16:53;;;;;;;3.72;1.30;;;;;;;18.79;49.81;100585.22;10293679;28;20058;-67
2023/05/28 07:21:55;;;;;;;3.17;1.90;;;;;;;18.85;49.34;100585.41;10298501;28;20101;-66
2023/05/28 07:26:56;;;;;;;5.68;2.42;;;;;;;19.07;48.62;100592.06;10299697;28;20055;-66
2023/05/28 07:31:57;;;;;;;6.25;2.05;;;;;;;19.19;48.27;100584.81;10297793;28;20053;-67
2023/05/28 07:36:59;;;;;;;6.15;1.80;;;;;;;19.41;47.88;100584.31;10300274;28;20057;-64
2023/05/28 07:42:00;;;;;;;6.93;2.05;;;;;;;19.70;47.35;100588.16;10300301;28;20054;-62
2023/05/28 07:47:03;;;;;;;5.25;2.00;;;;;;;19.95;46.54;100596.25;10303601;28;20484;-65
2023/05/28 07:52:05;;;;;;;8.27;1.77;;;;;;;20.14;45.79;100585.25;10300781;28;20064;-66
2023/05/28 07:57:06;;;;;;;6.28;1.92;;;;;;;20.39;44.90;100590.53;10299062;28;20047;-68
2023/05/28 08:02:07;;;;;;;6.20;1.80;;;;;;;20.63;43.88;100588.69;10292720;28;20042;-68
2023/05/28 08:07:12;;;;;;;10.00;1.80;;;;;;;20.84;43.56;100579.06;10294820;28;20133;-61
2023/05/28 08:12:14;;;;;;;3.88;1.58;;;;;;;20.94;43.93;100573.81;10297483;28;20132;-64
2023/05/28 08:17:16;;;;;;;5.30;1.48;;;;;;;21.10;43.04;100574.16;10293296;28;20072;-67
2023/05/28 08:22:17;;;;;;;7.43;1.92;;;;;;;21.38;42.38;100567.91;10294884;28;20046;-66
2023/05/28 08:27:18;;;;;;;5.68;2.17;;;;;;;21.54;41.34;100574.56;10294666;28;20038;-63
2023/05/28 08:32:21;;;;;;;4.72;1.55;;;;;;;21.64;41.04;100572.00;10294768;28;20068;-66
2023/05/28 08:37:22;;;;;;;5.20;2.00;;;;;;;21.85;40.84;100559.56;10295459;28;20051;-68
2023/05/28 08:42:27;;;;;;;8.40;1.35;;;;;;;21.96;40.66;100568.78;10293923;28;20049;-67
2023/05/28 08:47:32;;;;;;;5.30;1.73;;;;;;;22.09;40.21;100553.94;10291459;28;20651;-63
2023/05/28 08:52:34;;;;;;;6.78;1.60;;;;;;;22.32;39.70;100550.28;10294961;28;20050;-66
2023/05/28 08:57:37;;;;;;;5.30;1.60;;;;;;;22.43;39.53;100548.50;10291935;28;20050;-61
2023/05/28 09:02:39;;;;;;;10.90;2.03;;;;;;;22.71;39.23;100544.81;10304105;28;20046;-58
2023/05/28 09:07:41;;;;;;;5.85;2.03;;;;;;;22.88;38.76;100542.03;10301731;28;20516;-58
2023/05/28 09:12:58;;;;;;;6.43;1.80;;;;;;;23.08;38.41;100531.38;10305044;28;20050;-59
2023/05/28 09:18:01;;;;;;;6.13;2.08;;;;;;;23.44;38.01;100531.81;10302249;28;20042;-58
2023/05/28 09:23:04;;;;;;;11.00;2.00;;;;;;;23.46;37.30;100535.13;10307237;28;20046;-59
2023/05/28 09:28:06;;;;;;;4.32;1.40;;;;;;;23.52;36.64;100536.84;10305815;28;20073;-59
2023/05/28 09:33:09;;;;;;;4.85;1.83;;;;;;;23.60;36.46;100534.72;10305313;28;20058;-59
2023/05/28 09:38:11;;;;;;;6.13;1.90;;;;;;;23.93;36.63;100528.22;10302135;28;20050;-59
2023/05/28 09:43:12;;;;;;;6.10;1.83;;;;;;;24.20;36.37;100525.44;10294414;28;20390;-59
2023/05/28 09:48:14;;;;;;;6.25;1.98;;;;;;;24.40;35.78;100524.75;10294685;28;20047;-59
2023/05/28 09:53:16;;;;;;;6.70;1.50;;;;;;;24.55;35.45;100507.59;10301859;28;22875;-60
2023/05/28 09:58:21;;;;;;;5.50;1.50;;;;;;;24.73;35.80;100503.56;10305346;28;20039;-60
2023/05/28 10:03:35;;;;;;;7.25;1.70;;;;;;;25.01;35.06;100507.81;10299519;28;20047;-61
2023/05/28 10:08:37;;;;;;;6.97;1.60;;;;;;;25.18;35.09;100498.53;10298711;28;20039;-60
2023/05/28 10:13:39;;;;;;;7.78;1.92;;;;;;;25.37;35.29;100491.47;10300397;28;20078;-60
2023/05/28 10:18:41;;;;;;;7.28;2.67;;;;;;;25.68;34.17;100489.59;10301016;28;20051;-59
2023/05/28 10:23:44;;;;;;;4.68;1.48;;;;;;;25.75;33.46;100488.50;10307030;28;20069;-60
2023/05/28 10:28:53;;;;;;;22.85;3.10;;;;;;;25.95;32.67;100490.47;10304422;28;20047;-62
2023/05/28 10:33:54;;;;;;;5.88;1.58;;;;;;;26.18;32.39;100497.34;10297961;28;20100;-63
2023/05/28 10:38:59;;;;;;;2.85;1.38;;;;;;;26.58;32.29;100488.25;10301019;28;20050;-63
2023/05/28 10:44:07;;;;;;;3.22;1.58;;;;;;;26.84;31.53;100488.97;10287453;28;20053;-63
2023/05/28 10:49:16;;;;;;;2.72;1.73;;;;;;;26.94;30.48;100492.81;10300919;28;20109;-63
2023/05/28 10:54:40;;;;;;;3.47;1.75;;;;;;;27.10;29.68;100486.13;10293885;28;20105;-63
2023/05/28 10:59:50;;;;;;;4.75;1.55;;;;;;;27.36;29.25;100484.06;10300100;28;20051;-63
2023/05/28 11:04:53;;;;;;;6.75;1.65;;;;;;;27.51;28.96;100480.41;10297426;28;20050;-63
2023/05/28 11:09:57;;;;;;;5.38;1.70;;;;;;;27.72;27.96;100477.50;10296414;28;20046;-62
2023/05/28 11:14:58;;;;;;;6.35;2.42;;;;;;;27.96;26.92;100472.06;10295662;28;20057;-63
2023/05/28 11:20:01;;;;;;;6.30;2.63;;;;;;;28.12;27.13;100468.06;10279576;28;20042;-64
2023/05/28 11:25:08;;;;;;;3.67;1.70;;;;;;;28.36;25.90;100464.50;10300638;28;20054;-60
2023/05/28 11:30:15;;;;;;;4.18;1.50;;;;;;;28.25;24.65;100459.06;10300201;28;20068;-60
2023/05/28 11:35:17;;;;;;;2.80;1.52;;;;;;;28.31;24.39;100464.56;10303234;28;20477;-61
2023/05/28 11:40:19;;;;;;;5.82;2.42;;;;;;;28.41;24.50;100451.44;10303711;28;20054;-63
2023/05/28 11:45:20;;;;;;;6.90;1.40;;;;;;;28.59;24.20;100447.13;10305830;28;20074;-60
2023/05/28 11:50:22;;;;;;;5.43;1.40;;;;;;;28.76;23.94;100443.06;10302797;28;20054;-62
2023/05/28 11:55:24;;;;;;;3.78;1.90;;;;;;;28.72;24.00;100439.25;10303728;28;20118;-61
2023/05/28 12:00:33;;;;;;;5.07;1.58;;;;;;;28.93;23.39;100437.88;10328272;28;20042;-63
2023/05/28 12:05:38;;;;;;;5.03;1.67;;;;;;;29.18;23.68;100427.59;10335694;28;20082;-64
2023/05/28 12:10:40;;;;;;;5.07;1.40;;;;;;;29.62;23.22;100432.75;10301172;28;20043;-61
2023/05/28 12:15:41;;;;;;;4.53;1.58;;;;;;;30.54;21.48;100435.84;10296149;28;20406;-61
2023/05/28 12:20:43;;;;;;;4.32;1.92;;;;;;;32.16;20.40;100434.38;10300598;28;20053;-59
2023/05/28 12:25:50;;;;;;;5.53;3.30;;;;;;;33.60;19.02;100418.97;10295417;28;20134;-58
2023/05/28 12:30:54;;;;;;;9.35;3.45;;;;;;;34.84;17.49;100426.66;10293996;28;20486;-60
2023/05/28 12:35:57;;;;;;;9.18;5.03;;;;;;;35.85;16.73;100420.09;10296678;28;20116;-60
2023/05/28 12:40:59;;;;;;;4.63;1.73;;;;;;;35.49;17.11;100422.41;10305937;28;20043;-62
2023/05/28 12:46:01;;;;;;;3.95;1.95;;;;;;;35.08;17.64;100421.22;10315457;28;20043;-61
2023/05/28 12:51:03;;;;;;;3.17;1.73;;;;;;;34.15;18.06;100423.03;10309560;28;20046;-63
2023/05/28 12:56:04;;;;;;;2.47;1.83;;;;;;;33.29;18.06;100424.72;10309563;28;20050;-61
2023/05/28 13:01:06;;;;;;;3.65;1.35;;;;;;;33.11;18.64;100418.34;10303043;28;20050;-59
2023/05/28 13:06:07;;;;;;;4.57;1.80;;;;;;;32.64;18.35;100424.44;10305532;28;20100;-61
2023/05/28 13:11:09;;;;;;;3.28;1.63;;;;;;;32.04;18.92;100409.13;10305213;28;20035;-60
2023/05/28 13:16:10;;;;;;;2.97;1.60;;;;;;;32.09;19.41;100411.78;10302753;28;20055;-60
2023/05/28 13:21:15;;;;;;;6.93;1.88;;;;;;;32.14;19.53;100403.25;10300215;28;20143;-59
2023/05/28 13:26:16;;;;;;;5.82;2.03;;;;;;;32.44;19.20;100395.19;10309122;28;20056;-59
2023/05/28 13:31:18;;;;;;;3.65;2.10;;;;;;;32.61;19.11;100388.91;10304807;28;20054;-62
2023/05/28 13:36:20;;;;;;;8.23;2.40;;;;;;;33.47;19.02;100386.53;10288347;28;20520;-61
2023/05/28 13:41:24;;;;;;;4.63;2.25;;;;;;;34.47;18.24;100376.91;10304795;28;20042;-62
2023/05/28 13:46:26;;;;;;;3.55;1.85;;;;;;;35.91;17.07;100379.56;10306091;28;20046;-61
2023/05/28 13:51:28;;;;;;;3.22;1.88;;;;;;;37.04;16.34;100377.19;10283545;28;20046;-61
2023/05/28 13:56:29;;;;;;;5.65;2.13;;;;;;;37.09;16.26;100377.78;10297749;28;20054;-58
2023/05/28 14:01:30;;;;;;;3.55;1.60;;;;;;;37.29;16.28;100369.56;10298465;28;20046;-59
2023/05/28 14:06:32;;;;;;;2.97;1.73;;;;;;;37.56;15.89;100362.31;10298522;28;20508;-59
2023/05/28 14:11:34;;;;;;;4.43;1.60;;;;;;;37.27;15.95;100367.09;10298024;28;20038;-58
2023/05/28 14:16:55;;;;;;;4.85;1.50;;;;;;;35.61;16.79;100362.91;10293813;28;20078;-58
2023/05/28 14:21:57;;;;;;;3.65;1.20;;;;;;;34.42;17.87;100348.34;10304993;28;20046;-58
2023/05/28 14:26:58;;;;;;;3.97;1.40;;;;;;;34.01;18.43;100347.03;10314577;28;20058;-61
2023/05/28 14:32:00;;;;;;;4.15;1.30;;;;;;;34.53;18.27;100347.63;10299139;28;20078;-59
2023/05/28 14:37:02;;;;;;;3.35;1.23;;;;;;;34.54;18.10;100337.28;10293773;28;20062;-59
2023/05/28 14:42:05;;;;;;;4.20;1.50;;;;;;;35.20;17.72;100333.88;10293507;28;20073;-58
2023/05/28 14:47:06;;;;;;;4.30;1.33;;;;;;;35.25;17.15;100338.41;10281517;28;20042;-61
2023/05/28 14:52:30;;;;;;;4.70;1.73;;;;;;;35.01;17.62;100323.13;10275545;28;20054;-60
2023/05/28 14:57:34;;;;;;;3.97;1.50;;;;;;;34.56;18.38;100321.81;10295346;28;20047;-57
2023/05/28 15:02:37;;;;;;;4.07;1.65;;;;;;;34.54;18.11;100320.53;10296357;28;20069;-57
2023/05/28 15:07:38;;;;;;;3.78;1.50;;;;;;;35.15;18.26;100317.25;10312388;28;20062;-61
2023/05/28 15:12:40;;;;;;;2.00;1.00;;;;;;;35.59;17.86;100323.28;10282284;28;20512;-60
2023/05/28 15:17:42;;;;;;;3.63;2.03;;;;;;;35.92;17.07;100311.22;10290445;28;20054;-61
2023/05/28 15:22:43;;;;;;;4.53;1.75;;;;;;;35.89;16.77;100306.34;10294745;28;20077;-60
2023/05/28 15:27:45;;;;;;;2.88;1.60;;;;;;;35.96;17.03;100303.75;10291210;28;20575;-60
2023/05/28 15:32:48;;;;;;;4.05;1.40;;;;;;;36.02;17.05;100302.38;10279854;28;20054;-60
2023/05/28 15:37:50;;;;;;;5.43;2.00;;;;;;;35.60;17.38;100296.13;10294417;28;20054;-60
2023/05/28 15:42:55;;;;;;;2.17;1.55;;;;;;;34.91;17.25;100284.44;10286195;28;20054;-62
2023/05/28 15:47:58;;;;;;;5.18;2.40;;;;;;;35.07;17.35;100285.47;10291856;28;20046;-63
2023/05/28 15:53:00;;;;;;;1.73;1.25;;;;;;;35.28;17.12;100288.22;10295952;28;20145;-61
2023/05/28 15:58:02;;;;;;;4.22;1.38;;;;;;;35.32;17.70;100280.78;10280858;28;20046;-60
2023/05/28 16:03:04;;;;;;;3.40;1.48;;;;;;;35.60;17.55;100277.34;10292525;28;20046;-60
2023/05/28 16:08:07;;;;;;;5.18;1.40;;;;;;;35.57;18.06;100275.25;10296030;28;20054;-58
2023/05/28 16:13:12;;;;;;;3.70;1.33;;;;;;;35.61;18.02;100275.38;10290027;28;20585;-58
2023/05/28 16:18:14;;;;;;;2.20;1.20;;;;;;;35.85;17.64;100280.22;10294617;28;20410;-59
2023/05/28 16:23:17;;;;;;;2.53;1.20;;;;;;;35.71;18.26;100267.38;10293391;28;20038;-61
2023/05/28 16:28:19;;;;;;;2.55;1.23;;;;;;;35.60;17.82;100266.16;10296346;28;20053;-60
2023/05/28 16:33:21;;;;;;;1.45;1.08;;;;;;;35.69;17.98;100260.50;10297079;28;20049;-59
2023/05/28 16:38:23;;;;;;;2.67;1.17;;;;;;;35.88;17.84;100262.72;10294064;28;20057;-61
2023/05/28 16:43:24;;;;;;;2.78;1.15;;;;;;;35.99;17.71;100252.69;10295452;28;20046;-61
2023/05/28 16:48:28;;;;;;;3.10;1.20;;;;;;;35.64;17.84;100255.09;10295730;28;20498;-60
2023/05/28 16:53:29;;;;;;;1.75;1.05;;;;;;;35.45;17.81;100250.06;10276996;28;20050;-60
2023/05/28 16:58:31;;;;;;;3.80;1.73;;;;;;;35.44;17.73;100248.44;10295255;28;20391;-60
2023/05/28 17:03:33;;;;;;;2.38;1.13;;;;;;;35.59;17.47;100250.56;10294006;28;20066;-60
2023/05/28 17:08:34;;;;;;;3.15;1.48;;;;;;;35.47;17.91;100247.75;10293052;28;20184;-60
2023/05/28 17:13:36;;;;;;;4.65;1.90;;;;;;;35.50;18.21;100245.06;10293684;28;21085;-61
2023/05/28 17:18:38;;;;;;;3.60;1.58;;;;;;;35.42;18.29;100254.38;10294841;28;20046;-61
2023/05/28 17:23:42;;;;;;;;;;;;;;;35.18;18.88;100249.53;10296690;28;20050;-61
2023/05/28 17:28:43;;;;;;;4.63;1.55;;;;;;;35.04;18.85;100257.38;10307407;28;20020;-63
2023/05/28 17:33:45;;;;;;;3.22;1.70;;;;;;;34.99;18.83;100263.19;10302678;28;20493;-60
2023/05/28 17:38:46;;;;;;;4.60;2.20;;;;;;;34.65;19.83;100262.31;10301043;28;20069;-59
2023/05/28 17:43:48;;;;;;;5.20;2.03;;;;;;;34.53;20.15;100263.06;10301442;28;20054;-59
2023/05/28 17:48:49;;;;;;;13.32;2.90;;;;;;;34.35;19.71;100260.38;10297319;28;20065;-60
2023/05/28 17:53:51;;;;;;;6.45;2.53;;;;;;;34.10;19.95;100266.91;10295603;28;20058;-59
2023/05/28 17:58:53;;;;;;;5.75;2.25;;;;;;;33.73;20.22;100267.44;10291030;28;20122;-59
2023/05/28 18:03:54;;;;;;;4.53;2.50;;;;;;;33.53;20.81;100274.53;10276441;28;20691;-59
2023/05/28 18:08:56;;;;;;;5.30;2.60;;;;;;;32.57;21.31;100282.94;10300273;28;20138;-59
2023/05/28 18:13:58;;;;;;;5.35;2.38;;;;;;;31.72;22.16;100285.13;10296491;28;20732;-58
2023/05/28 18:18:59;;;;;;;4.10;1.92;;;;;;;30.86;23.16;100286.13;10303248;28;20054;-58
2023/05/28 18:24:08;;;;;;;3.92;2.17;;;;;;;30.04;23.71;100275.69;10301187;28;20247;-59
2023/05/28 18:29:10;;;;;;;2.80;2.03;;;;;;;29.24;24.50;100283.22;10299788;28;20061;-58
2023/05/28 18:34:12;;;;;;;4.18;1.40;;;;;;;28.68;24.68;100284.91;10293842;28;20049;-58
2023/05/28 18:39:13;;;;;;;7.10;1.60;;;;;;;28.20;25.52;100300.72;10298356;28;20050;-58
2023/05/28 18:44:15;;;;;;;7.57;1.42;;;;;;;27.64;25.81;100299.38;10303433;28;20054;-60
2023/05/28 18:49:16;;;;;;;6.60;1.50;;;;;;;27.27;26.04;100309.94;10300929;28;20053;-58
2023/05/28 18:54:18;;;;;;;4.80;1.05;;;;;;;26.91;27.31;100309.34;10300899;28;20046;-58
2023/05/28 18:59:19;;;;;;;3.22;1.13;;;;;;;26.44;28.04;100319.78;10291428;28;20042;-60
2023/05/28 19:04:21;;;;;;;2.88;1.10;;;;;;;25.99;27.91;100326.28;10301961;28;20051;-58
2023/05/28 19:09:22;;;;;;;3.40;1.35;;;;;;;25.66;28.43;100331.28;10300218;28;20050;-59
2023/05/28 19:14:23;;;;;;;4.78;2.08;;;;;;;25.42;28.83;100340.09;10299216;28;20492;-60
2023/05/28 19:19:25;;;;;;;5.07;1.67;;;;;;;25.04;29.61;100341.41;10296955;28;20039;-58
2023/05/28 19:24:26;;;;;;;3.72;1.38;;;;;;;24.76;29.95;100348.22;10298602;28;20050;-59
2023/05/28 19:29:28;;;;;;;5.22;2.05;;;;;;;24.53;30.38;100342.13;10300630;28;20054;-58
2023/05/28 19:34:31;;;;;;;2.90;1.40;;;;;;;24.18;31.01;100351.81;10291931;28;20635;-57
2023/05/28 19:39:33;;;;;;;3.97;1.70;;;;;;;23.99;31.50;100364.31;10305280;28;20038;-58
2023/05/28 19:44:34;;;;;;;4.25;2.13;;;;;;;23.80;32.15;100363.94;10303084;28;20050;-57
2023/05/28 19:49:36;;;;;;;4.75;2.65;;;;;;;23.53;32.97;100382.06;10286382;28;20046;-58
2023/05/28 19:54:37;;;;;;;12.73;4.55;;;;;;;23.32;33.49;100382.97;10300401;28;20042;-58
2023/05/28 19:59:39;;;;;;;5.90;4.22;;;;;;;23.12;33.98;100391.84;10297330;28;20042;-57
2023/05/28 20:04:46;;;;;;;5.55;2.80;;;;;;;22.99;34.12;100398.53;10292689;28;20125;-57
2023/05/28 20:09:48;;;;;;;4.15;2.28;;;;;;;22.89;34.40;100399.25;10300012;28;20109;-58
2023/05/28 20:14:49;;;;;;;6.25;2.47;;;;;;;22.72;35.02;100395.75;10295811;28;20051;-58
2023/05/28 20:19:52;;;;;;;4.97;2.80;;;;;;;22.56;35.62;100401.03;10301875;28;20752;-58
2023/05/28 20:24:54;;;;;;;8.48;3.10;;;;;;;22.38;36.01;100404.91;10292276;28;20124;-58
2023/05/28 20:29:55;;;;;;;4.15;2.22;;;;;;;22.25;36.37;100412.66;10295475;28;20051;-58
2023/05/28 20:34:56;;;;;;;8.52;2.10;;;;;;;22.05;36.65;100415.91;10293155;28;20062;-58
2023/05/28 20:39:59;;;;;;;3.92;2.30;;;;;;;21.90;36.62;100421.94;10295439;28;20496;-57
2023/05/28 20:45:01;;;;;;;4.13;1.70;;;;;;;21.76;37.45;100421.44;10294550;28;20415;-60
2023/05/28 20:50:03;;;;;;;6.43;2.15;;;;;;;21.67;37.40;100433.91;10293454;28;20047;-60
2023/05/28 20:55:08;;;;;;;5.18;2.33;;;;;;;21.56;37.81;100439.22;10290121;28;20486;-57
2023/05/28 21:00:11;;;;;;;4.00;2.25;;;;;;;21.43;37.83;100427.72;10304767;28;20043;-58
2023/05/28 21:05:12;;;;;;;4.55;2.05;;;;;;;21.38;37.51;100447.56;10301037;28;20094;-58
2023/05/28 21:10:14;;;;;;;8.45;2.00;;;;;;;21.25;37.54;100439.66;10296992;28;20399;-58
2023/05/28 21:15:16;;;;;;;4.22;1.80;;;;;;;21.19;37.42;100439.59;10301590;28;20042;-59
2023/05/28 21:20:17;;;;;;;6.90;2.05;;;;;;;21.10;37.83;100446.50;10300610;28;20080;-57
2023/05/28 21:25:19;;;;;;;7.90;5.70;;;;;;;21.01;38.13;100450.72;10299311;28;20113;-58
2023/05/28 21:30:20;;;;;;;7.15;5.10;;;;;;;20.92;38.20;100449.44;10303849;28;20042;-58
2023/05/28 21:35:21;;;;;;;7.53;5.22;;;;;;;20.81;38.24;100451.09;10287450;28;20042;-58
2023/05/28 21:40:23;;;;;;;7.50;2.90;;;;;;;20.73;38.82;100457.78;10301710;28;20051;-58
2023/05/28 21:45:24;;;;;;;6.75;2.85;;;;;;;20.63;38.97;100456.75;10304130;28;20039;-57
2023/05/28 21:50:26;;;;;;;5.00;2.70;;;;;;;20.52;38.89;100452.94;10300518;28;20055;-57
2023/05/28 21:55:28;;;;;;;3.53;1.90;;;;;;;20.35;39.45;100466.47;10300369;28;20057;-58
2023/05/28 22:00:30;;;;;;;6.43;2.40;;;;;;;20.28;39.72;100468.47;10303454;28;20469;-58
2023/05/28 22:05:32;;;;;;;5.50;2.47;;;;;;;20.15;40.06;100461.38;10300026;28;20486;-60
2023/05/28 22:10:33;;;;;;;6.50;3.30;;;;;;;20.06;40.19;100463.59;10299169;28;20044;-58
2023/05/28 22:15:35;;;;;;;6.60;2.22;;;;;;;19.91;40.65;100472.25;10299081;28;20042;-58
2023/05/28 22:20:36;;;;;;;5.05;2.72;;;;;;;19.79;40.88;100474.13;10302752;28;20478;-58
2023/05/28 22:25:45;;;;;;;5.95;1.83;;;;;;;19.71;40.92;100478.03;10301276;28;20116;-57
2023/05/28 22:30:47;;;;;;;6.10;2.25;;;;;;;19.62;41.33;100482.13;10297061;28;20121;-58
2023/05/28 22:35:48;;;;;;;7.32;1.98;;;;;;;19.52;41.54;100482.69;10298570;28;20050;-58
2023/05/28 22:40:50;;;;;;;3.88;2.42;;;;;;;19.35;42.09;100484.38;10297515;28;20134;-59
2023/05/28 22:45:51;;;;;;;6.85;3.70;;;;;;;19.25;42.39;100484.09;10297016;28;20047;-58
2023/05/28 22:50:53;;;;;;;7.47;4.30;;;;;;;19.12;42.67;100480.50;10298324;28;20047;-58
2023/05/28 22:55:55;;;;;;;10.38;5.15;;;;;;;19.03;42.89;100484.59;10298403;28;20509;-58
2023/05/28 23:00:57;;;;;;;8.98;4.03;;;;;;;18.95;43.12;100482.19;10297604;28;20039;-59
2023/05/28 23:05:58;;;;;;;7.30;3.50;;;;;;;18.85;43.27;100484.63;10295656;28;20081;-59
2023/05/28 23:10:59;;;;;;;5.72;3.40;;;;;;;18.76;43.50;100489.47;10296670;28;20501;-59